createdAt,value
2022-11-18T00:01:09.214Z,1.86
2022-11-18T00:03:36.919Z,1.81
2022-11-18T00:06:04.715Z,1.78
2022-11-18T00:08:32.245Z,1.84
2022-11-18T00:10:59.464Z,1.82
2022-11-18T00:13:45.276Z,1.76
2022-11-18T00:16:13.287Z,1.74
2022-11-18T00:18:40.489Z,1.79
2022-11-18T00:21:09.905Z,1.76
2022-11-18T00:23:37.137Z,1.74
2022-11-18T00:26:12.249Z,1.71
2022-11-18T00:28:41.313Z,1.74
2022-11-18T00:31:10.747Z,1.75
2022-11-18T00:33:38.308Z,1.67
2022-11-18T00:36:07.702Z,1.72
2022-11-18T00:38:34.826Z,1.69
2022-11-18T00:41:02.614Z,1.61
2022-11-18T00:43:30.431Z,1.60
2022-11-18T00:45:58.113Z,1.63
2022-11-18T00:48:25.992Z,1.55
2022-11-18T00:50:55.145Z,1.60
2022-11-18T00:53:24.271Z,1.65
2022-11-18T00:55:52.191Z,1.67
2022-11-18T00:58:20.877Z,1.57
2022-11-18T01:00:52.041Z,1.68
2022-11-18T01:03:20.132Z,1.58
2022-11-18T01:05:47.757Z,1.56
2022-11-18T01:08:15.523Z,1.52
2022-11-18T01:10:42.971Z,1.54
2022-11-18T01:13:20.318Z,1.54
2022-11-18T01:15:52.974Z,1.48
2022-11-18T01:18:23.690Z,1.51
2022-11-18T01:20:51.032Z,1.50
2022-11-18T01:23:19.885Z,1.47
2022-11-18T01:25:48.787Z,1.48
2022-11-18T01:28:23.256Z,1.46
2022-11-18T01:30:51.178Z,1.42
2022-11-18T01:33:18.420Z,1.48
2022-11-18T01:35:45.636Z,1.41
2022-11-18T01:38:13.986Z,1.42
2022-11-18T01:40:41.778Z,1.36
2022-11-18T01:43:20.789Z,1.28
2022-11-18T01:45:51.958Z,1.26
2022-11-18T01:48:21.249Z,1.28
2022-11-18T01:51:01.087Z,1.29
2022-11-18T01:53:32.723Z,1.33
2022-11-18T01:56:04.366Z,1.26
2022-11-18T01:58:42.132Z,1.23
2022-11-18T02:01:09.640Z,1.14
2022-11-18T02:03:37.772Z,1.20
2022-11-18T02:06:05.778Z,1.21
2022-11-18T02:08:37.459Z,1.16
2022-11-18T02:11:32.387Z,1.06
2022-11-18T02:14:01.177Z,1.01
2022-11-18T02:16:50.963Z,1.01
2022-11-18T02:19:41.822Z,0.99
2022-11-18T02:22:45.903Z,0.92
2022-11-18T02:25:34.087Z,0.91
2022-11-18T02:28:29.779Z,0.98
2022-11-18T02:31:21.049Z,0.96
2022-11-18T02:33:52.806Z,1.00
2022-11-18T02:36:28.459Z,1.06
2022-11-18T02:39:05.509Z,1.07
2022-11-18T02:41:35.346Z,1.13
2022-11-18T02:44:16.967Z,1.14
2022-11-18T02:46:47.632Z,1.08
2022-11-18T02:49:22.383Z,1.10
2022-11-18T02:51:51.170Z,1.11
2022-11-18T02:54:20.039Z,1.09
2022-11-18T02:56:47.643Z,1.15
2022-11-18T02:59:19.596Z,1.08
2022-11-18T03:01:47.244Z,1.16
2022-11-18T03:04:15.282Z,1.05
2022-11-18T03:07:19.123Z,1.03
2022-11-18T03:09:49.383Z,1.11
2022-11-18T03:12:54.211Z,0.94
2022-11-18T03:15:39.279Z,0.79
2022-11-18T03:18:16.790Z,0.90
2022-11-18T03:20:58.826Z,0.77
2022-11-18T03:23:42.476Z,0.67
2022-11-18T03:26:18.037Z,0.64
2022-11-18T03:28:54.027Z,0.58
2022-11-18T03:31:30.114Z,0.59
2022-11-18T03:34:04.194Z,0.49
2022-11-18T03:36:36.000Z,0.49
2022-11-18T03:39:03.866Z,0.46
2022-11-18T03:41:33.017Z,0.53
2022-11-18T03:44:07.928Z,0.57
2022-11-18T03:46:55.346Z,0.44
2022-11-18T03:49:32.019Z,0.44
2022-11-18T03:52:06.739Z,0.37
2022-11-18T03:54:36.125Z,0.37
2022-11-18T03:57:06.201Z,0.34
2022-11-18T03:59:41.350Z,0.31
2022-11-18T04:02:23.947Z,0.34
2022-11-18T04:04:54.331Z,0.31
2022-11-18T04:07:34.924Z,0.35
2022-11-18T04:10:19.229Z,0.35
2022-11-18T04:13:11.931Z,0.34
2022-11-18T04:15:41.062Z,0.32
2022-11-18T04:18:08.740Z,0.30
2022-11-18T04:20:37.423Z,0.35
2022-11-18T04:23:05.701Z,0.35
2022-11-18T04:25:33.016Z,0.31
2022-11-18T04:28:00.302Z,0.33
2022-11-18T04:30:27.907Z,0.31
2022-11-18T04:32:55.101Z,0.28
2022-11-18T04:35:22.310Z,0.28
2022-11-18T04:37:49.491Z,0.27
2022-11-18T04:40:16.934Z,0.20
2022-11-18T04:42:44.168Z,0.21
2022-11-18T04:45:11.598Z,0.19
2022-11-18T04:47:39.051Z,0.25
2022-11-18T04:50:06.898Z,0.24
2022-11-18T04:52:34.090Z,0.20
2022-11-18T04:55:01.254Z,0.16
2022-11-18T04:57:28.435Z,0.21
2022-11-18T04:59:55.608Z,0.19
2022-11-18T05:02:22.767Z,0.12
2022-11-18T05:04:50.121Z,0.06
2022-11-18T05:07:20.463Z,0.05
2022-11-18T05:09:47.684Z,0.02
2022-11-18T05:12:33.874Z,0.06
2022-11-18T05:15:01.429Z,0.02
2022-11-18T05:17:28.727Z,-0.02
2022-11-18T05:19:56.016Z,0.03
2022-11-18T05:22:23.256Z,0.01
2022-11-18T05:24:50.451Z,0.07
2022-11-18T05:27:18.007Z,0.07
2022-11-18T05:29:45.285Z,-0.03
2022-11-18T05:32:12.503Z,-0.09
2022-11-18T05:34:40.953Z,-0.06
2022-11-18T05:37:08.189Z,-0.07
2022-11-18T05:39:35.384Z,-0.07
2022-11-18T05:42:21.576Z,-0.17
2022-11-18T05:44:56.158Z,-0.20
2022-11-18T05:47:25.185Z,-0.18
2022-11-18T05:49:52.363Z,-0.18
2022-11-18T05:52:19.606Z,-0.20
2022-11-18T05:54:50.036Z,-0.07
2022-11-18T05:57:17.355Z,-0.15
2022-11-18T05:59:44.824Z,-0.22
2022-11-18T06:02:16.803Z,-0.19
2022-11-18T06:04:54.761Z,-0.18
2022-11-18T06:07:35.832Z,-0.15
2022-11-18T06:10:06.015Z,-0.03
2022-11-18T06:12:37.897Z,-0.04
2022-11-18T06:15:19.089Z,0.01
2022-11-18T06:18:09.024Z,-0.16
2022-11-18T06:20:38.063Z,-0.16
2022-11-18T06:23:05.407Z,-0.15
2022-11-18T06:25:33.746Z,-0.12
2022-11-18T06:28:02.308Z,-0.15
2022-11-18T06:30:29.617Z,-0.22
2022-11-18T06:32:56.908Z,-0.15
2022-11-18T06:35:24.306Z,-0.30
2022-11-18T06:37:51.700Z,-0.33
2022-11-18T06:40:19.013Z,-0.30
2022-11-18T06:43:05.046Z,-0.32
2022-11-18T06:45:32.281Z,-0.37
2022-11-18T06:48:04.170Z,-0.36
2022-11-18T06:50:31.516Z,-0.26
2022-11-18T06:53:01.402Z,-0.28
2022-11-18T06:55:28.609Z,-0.32
2022-11-18T06:57:57.148Z,-0.31
2022-11-18T07:00:24.363Z,-0.34
2022-11-18T07:02:51.594Z,-0.37
2022-11-18T07:05:21.636Z,-0.34
2022-11-18T07:07:48.944Z,-0.35
2022-11-18T07:10:16.441Z,-0.37
2022-11-18T07:12:43.647Z,-0.41
2022-11-18T07:15:11.172Z,-0.37
2022-11-18T07:17:38.405Z,-0.41
2022-11-18T07:20:06.000Z,-0.45
2022-11-18T07:22:33.156Z,-0.58
2022-11-18T07:25:00.574Z,-0.54
2022-11-18T07:27:27.806Z,-0.54
2022-11-18T07:29:54.989Z,-0.62
2022-11-18T07:32:22.270Z,-0.58
2022-11-18T07:34:49.488Z,-0.56
2022-11-18T07:37:16.718Z,-0.67
2022-11-18T07:39:43.896Z,-0.74
2022-11-18T07:42:11.117Z,-0.67
2022-11-18T07:44:38.359Z,-0.88
2022-11-18T07:47:05.559Z,-0.95
2022-11-18T07:49:32.782Z,-0.94
2022-11-18T07:52:00.010Z,-0.92
2022-11-18T07:54:27.183Z,-0.96
2022-11-18T07:56:54.415Z,-1.02
2022-11-18T07:59:21.763Z,-1.02
2022-11-18T08:01:49.094Z,-1.04
2022-11-18T08:04:17.945Z,-1.02
2022-11-18T08:06:45.602Z,-0.99
2022-11-18T08:09:12.928Z,-1.08
2022-11-18T08:11:40.940Z,-0.98
2022-11-18T08:14:08.252Z,-0.94
2022-11-18T08:16:35.519Z,-1.00
2022-11-18T08:19:02.685Z,-0.92
2022-11-18T08:21:29.889Z,-0.81
2022-11-18T08:23:58.034Z,-0.89
2022-11-18T08:26:26.291Z,-0.87
2022-11-18T08:28:54.146Z,-0.72
2022-11-18T08:31:30.893Z,-0.68
2022-11-18T08:34:06.613Z,-0.69
2022-11-18T08:36:36.016Z,-0.64
2022-11-18T08:39:04.564Z,-0.57
2022-11-18T08:41:40.633Z,-0.41
2022-11-18T08:44:08.643Z,-0.43
2022-11-18T08:46:35.864Z,-0.40
2022-11-18T08:49:03.083Z,-0.48
2022-11-18T08:51:30.678Z,-0.35
2022-11-18T08:53:58.197Z,-0.31
2022-11-18T08:56:25.911Z,-0.34
2022-11-18T08:58:54.338Z,-0.31
2022-11-18T09:01:21.695Z,-0.36
2022-11-18T09:03:49.751Z,-0.35
2022-11-18T09:06:17.976Z,-0.35
2022-11-18T09:08:45.605Z,-0.26
2022-11-18T09:11:15.289Z,-0.35
2022-11-18T09:14:20.482Z,-0.35
2022-11-18T09:16:31.616Z,-0.34
2022-11-18T09:19:08.535Z,-0.39
2022-11-18T09:21:45.631Z,-0.26
2022-11-18T09:24:13.274Z,-0.24
2022-11-18T09:26:41.344Z,-0.21
2022-11-18T09:29:09.020Z,-0.19
2022-11-18T09:31:36.217Z,-0.34
2022-11-18T09:34:03.414Z,-0.37
2022-11-18T09:36:30.785Z,-0.29
2022-11-18T09:39:00.363Z,-0.45
2022-11-18T09:41:47.767Z,-0.45
2022-11-18T09:44:33.934Z,-0.43
2022-11-18T09:47:28.069Z,-0.52
2022-11-18T09:49:57.182Z,-0.49
2022-11-18T09:52:40.428Z,-0.43
2022-11-18T09:55:15.893Z,-0.19
2022-11-18T09:57:51.125Z,-0.31
2022-11-18T10:00:23.995Z,-0.45
2022-11-18T10:02:57.333Z,-0.60
2022-11-18T10:05:34.109Z,-0.72
2022-11-18T10:08:22.758Z,-0.51
2022-11-18T10:11:04.908Z,-0.51
2022-11-18T10:13:47.375Z,-0.46
2022-11-18T10:16:39.597Z,-0.46
2022-11-18T10:19:32.194Z,-0.53
2022-11-18T10:22:24.005Z,-0.64
2022-11-18T10:24:53.893Z,-0.63
2022-11-18T10:27:21.685Z,-0.68
2022-11-18T10:29:53.223Z,-0.72
2022-11-18T10:32:20.979Z,-0.72
2022-11-18T10:34:52.452Z,-0.76
2022-11-18T10:37:34.694Z,-0.76
2022-11-18T10:40:25.500Z,-0.74
2022-11-18T10:42:52.791Z,-0.67
2022-11-18T10:45:27.424Z,-0.78
2022-11-18T10:48:28.516Z,-0.86
2022-11-18T10:50:56.235Z,-0.78
2022-11-18T10:53:34.064Z,-0.79
2022-11-18T10:56:09.109Z,-0.82
2022-11-18T10:58:40.886Z,-0.73
2022-11-18T11:01:24.991Z,-0.77
2022-11-18T11:04:14.038Z,-0.80
2022-11-18T11:06:41.262Z,-0.75
2022-11-18T11:09:28.689Z,-0.68
2022-11-18T11:12:01.418Z,-0.75
2022-11-18T11:14:32.881Z,-0.71
2022-11-18T11:17:16.211Z,-0.66
2022-11-18T11:19:51.445Z,-0.63
2022-11-18T11:22:18.990Z,-0.60
2022-11-18T11:24:46.585Z,-0.73
2022-11-18T11:30:24.455Z,-0.71
2022-11-18T11:33:20.764Z,-0.88
2022-11-18T11:35:52.172Z,-0.90
2022-11-18T11:38:41.403Z,-0.91
2022-11-18T11:41:24.960Z,-0.95
2022-11-18T11:44:07.511Z,-0.85
2022-11-18T11:47:19.517Z,-0.91
2022-11-18T11:50:03.821Z,-0.74
2022-11-18T11:52:35.556Z,-0.86
2022-11-18T11:55:16.910Z,-0.91
2022-11-18T11:57:52.523Z,-0.97
2022-11-18T12:00:20.745Z,-1.01
2022-11-18T12:02:57.906Z,-0.96
2022-11-18T12:05:35.876Z,-0.84
2022-11-18T12:08:06.463Z,-0.89
2022-11-18T12:11:03.931Z,-0.79
2022-11-18T12:13:41.923Z,-0.87
2022-11-18T12:16:24.511Z,-0.82
2022-11-18T12:19:07.148Z,-0.79
2022-11-18T12:21:46.151Z,-0.78
2022-11-18T12:24:33.318Z,-0.73
2022-11-18T12:27:05.675Z,-0.73
2022-11-18T12:29:55.656Z,-0.71
2022-11-18T12:32:42.820Z,-0.70
2022-11-18T12:35:13.067Z,-0.74
2022-11-18T12:37:52.674Z,-0.68
2022-11-18T12:40:40.388Z,-0.63
2022-11-18T12:43:48.970Z,-0.61
2022-11-18T12:46:34.248Z,-0.56
2022-11-18T12:49:23.379Z,-0.56
2022-11-18T12:52:04.183Z,-0.63
2022-11-18T12:54:46.565Z,-0.62
2022-11-18T12:57:19.380Z,-0.61
2022-11-18T12:59:46.764Z,-0.64
2022-11-18T13:02:19.216Z,-0.63
2022-11-18T13:04:53.100Z,-0.57
2022-11-18T13:07:43.476Z,-0.58
2022-11-18T13:10:32.088Z,-0.53
2022-11-18T13:12:59.866Z,-0.55
2022-11-18T13:15:46.359Z,-0.54
2022-11-18T13:18:17.635Z,-0.54
2022-11-18T13:20:56.439Z,-0.45
2022-11-18T13:23:48.977Z,-0.48
2022-11-18T13:26:30.386Z,-0.27
2022-11-18T13:29:13.578Z,-0.38
2022-11-18T13:32:04.998Z,-0.35
2022-11-18T13:34:33.117Z,-0.41
2022-11-18T13:37:01.300Z,-0.59
2022-11-18T13:39:31.953Z,-0.74
2022-11-18T13:42:03.706Z,-0.87
2022-11-18T13:44:33.415Z,-0.98
2022-11-18T13:47:20.827Z,-1.05
2022-11-18T13:50:14.023Z,-1.11
2022-11-18T13:52:45.204Z,-1.15
2022-11-18T13:55:34.358Z,-1.15
2022-11-18T13:58:08.971Z,-1.12
2022-11-18T14:00:36.693Z,-1.09
2022-11-18T14:03:13.647Z,-1.06
2022-11-18T14:05:41.301Z,-1.08
2022-11-18T14:08:28.304Z,-1.14
2022-11-18T14:10:55.719Z,-1.22
2022-11-18T14:13:49.457Z,-1.40
2022-11-18T14:16:24.047Z,-1.52
2022-11-18T14:18:52.300Z,-1.54
2022-11-18T14:21:31.540Z,-1.60
2022-11-18T14:24:03.286Z,-1.62
2022-11-18T14:26:38.551Z,-1.67
2022-11-18T14:29:21.334Z,-1.73
2022-11-18T14:32:26.881Z,-1.66
2022-11-18T14:35:00.842Z,-1.77
2022-11-18T14:37:28.501Z,-1.89
2022-11-18T14:39:58.867Z,-1.87
2022-11-18T14:42:26.067Z,-1.85
2022-11-18T14:44:53.274Z,-1.88
2022-11-18T14:47:30.479Z,-1.96
2022-11-18T14:50:00.526Z,-1.89
2022-11-18T14:52:27.714Z,-1.98
2022-11-18T14:54:54.871Z,-2.11
2022-11-18T14:57:22.060Z,-2.08
2022-11-18T14:59:49.241Z,-2.12
2022-11-18T15:02:17.936Z,-2.06
2022-11-18T15:04:45.363Z,-2.11
2022-11-18T15:07:18.532Z,-2.13
2022-11-18T15:09:48.942Z,-2.23
2022-11-18T15:12:16.169Z,-2.26
2022-11-18T15:14:43.413Z,-2.35
2022-11-18T15:17:13.193Z,-2.27
2022-11-18T15:19:43.254Z,-2.31
2022-11-18T15:22:10.427Z,-2.35
2022-11-18T15:24:38.472Z,-2.39
2022-11-18T15:27:05.661Z,-2.52
2022-11-18T15:29:33.842Z,-2.47
2022-11-18T15:32:01.029Z,-2.50
2022-11-18T15:34:28.232Z,-2.53
2022-11-18T15:36:55.423Z,-2.51
2022-11-18T15:39:22.849Z,-2.51
2022-11-18T15:41:50.163Z,-2.54
2022-11-18T15:44:17.694Z,-2.61
2022-11-18T15:46:47.857Z,-2.61
2022-11-18T15:49:17.463Z,-2.66
2022-11-18T15:51:44.785Z,-2.77
2022-11-18T15:54:12.009Z,-2.69
2022-11-18T15:56:39.907Z,-2.66
2022-11-18T15:59:11.919Z,-2.77
2022-11-18T16:01:41.064Z,-2.76
2022-11-18T16:04:10.434Z,-2.82
2022-11-18T16:06:38.005Z,-2.81
2022-11-18T16:09:05.942Z,-2.89
2022-11-18T16:11:51.649Z,-2.90
2022-11-18T16:14:20.256Z,-3.04
2022-11-18T16:16:49.305Z,-3.01
2022-11-18T16:19:18.721Z,-3.02
2022-11-18T16:21:48.394Z,-3.05
2022-11-18T16:24:18.982Z,-3.10
2022-11-18T16:26:46.397Z,-3.07
2022-11-18T16:29:17.202Z,-3.10
2022-11-18T16:31:50.616Z,-3.21
2022-11-18T16:34:19.126Z,-3.31
2022-11-18T16:36:48.583Z,-3.25
2022-11-18T16:39:23.445Z,-3.31
2022-11-18T16:41:54.573Z,-3.34
2022-11-18T16:44:21.792Z,-3.32
2022-11-18T16:46:50.801Z,-3.29
2022-11-18T16:49:20.825Z,-3.35
2022-11-18T16:51:49.930Z,-3.31
2022-11-18T16:54:23.177Z,-3.33
2022-11-18T16:56:51.871Z,-3.28
2022-11-18T16:59:23.922Z,-3.25
2022-11-18T17:01:55.326Z,-3.21
2022-11-18T17:04:24.498Z,-3.25
2022-11-18T17:06:52.109Z,-3.31
2022-11-18T17:09:22.269Z,-3.36
2022-11-18T17:11:50.753Z,-3.38
2022-11-18T17:14:19.493Z,-3.45
2022-11-18T17:16:46.996Z,-3.53
2022-11-18T17:19:16.215Z,-3.47
2022-11-18T17:21:43.972Z,-3.59
2022-11-18T17:24:16.724Z,-3.50
2022-11-18T17:26:44.240Z,-3.52
2022-11-18T17:29:12.268Z,-3.57
2022-11-18T17:31:40.133Z,-3.61
2022-11-18T17:34:09.541Z,-3.65
2022-11-18T17:36:36.791Z,-3.62
2022-11-18T17:39:04.546Z,-3.58
2022-11-18T17:41:50.262Z,-3.62
2022-11-18T17:44:18.363Z,-3.61
2022-11-18T17:46:47.258Z,-3.72
2022-11-18T17:49:17.948Z,-3.72
2022-11-18T17:51:48.227Z,-3.72
2022-11-18T17:54:16.144Z,-3.73
2022-11-18T17:56:43.727Z,-3.78
2022-11-18T17:59:14.464Z,-3.83
2022-11-18T18:01:41.783Z,-3.85
2022-11-18T18:04:09.001Z,-3.83
2022-11-18T18:06:36.230Z,-3.83
2022-11-18T18:09:03.813Z,-3.86
2022-11-18T18:11:31.041Z,-3.91
2022-11-18T18:14:13.669Z,-3.96
2022-11-18T18:16:46.544Z,-3.97
2022-11-18T18:19:19.526Z,-4.05
2022-11-18T18:21:47.412Z,-4.11
2022-11-18T18:24:17.231Z,-4.08
2022-11-18T18:26:47.227Z,-4.08
2022-11-18T18:29:14.742Z,-4.12
2022-11-18T18:31:42.285Z,-4.14
2022-11-18T18:34:09.503Z,-4.16
2022-11-18T18:36:36.917Z,-4.15
2022-11-18T18:39:04.619Z,-4.15
2022-11-18T18:41:32.563Z,-4.14
2022-11-18T18:44:00.578Z,-4.23
2022-11-18T18:46:34.274Z,-4.20
2022-11-18T18:49:20.504Z,-4.24
2022-11-18T18:51:49.429Z,-4.28
2022-11-18T18:54:18.437Z,-4.28
2022-11-18T18:56:46.145Z,-4.26
2022-11-18T18:59:13.378Z,-4.31
2022-11-18T19:01:41.148Z,-4.34
2022-11-18T19:04:11.214Z,-4.34
2022-11-18T19:09:27.132Z,-4.37
2022-11-18T19:12:13.150Z,-4.47
2022-11-18T19:14:40.511Z,-4.43
2022-11-18T19:17:12.723Z,-4.47
2022-11-18T19:20:00.350Z,-4.48
2022-11-18T19:22:30.487Z,-4.55
2022-11-18T19:24:58.271Z,-4.59
2022-11-18T19:27:26.185Z,-4.60
2022-11-18T19:29:53.618Z,-4.65
2022-11-18T19:32:21.137Z,-4.69
2022-11-18T19:34:48.348Z,-4.70
2022-11-18T19:37:15.670Z,-4.72
2022-11-18T19:39:42.838Z,-4.74
2022-11-18T19:42:10.988Z,-4.73
2022-11-18T19:44:39.039Z,-4.73
2022-11-18T19:47:06.454Z,-4.73
2022-11-18T19:49:33.632Z,-4.75
2022-11-18T19:52:00.937Z,-4.77
2022-11-18T19:54:28.344Z,-4.77
2022-11-18T19:56:55.560Z,-4.78
2022-11-18T19:59:22.779Z,-4.75
2022-11-18T20:01:50.062Z,-4.68
2022-11-18T20:04:17.456Z,-4.66
2022-11-18T20:06:45.603Z,-4.58
2022-11-18T20:09:13.373Z,-4.52
2022-11-18T20:11:40.718Z,-4.47
2022-11-18T20:14:09.002Z,-4.39
2022-11-18T20:16:37.153Z,-4.40
2022-11-18T20:19:10.681Z,-4.34
2022-11-18T20:21:39.219Z,-4.32
2022-11-18T20:24:07.848Z,-4.30
2022-11-18T20:26:38.092Z,-4.35
2022-11-18T20:29:06.265Z,-4.45
2022-11-18T20:31:34.123Z,-4.42
2022-11-18T20:34:01.632Z,-4.40
2022-11-18T20:36:31.311Z,-4.41
2022-11-18T20:39:01.506Z,-4.46
2022-11-18T20:41:32.039Z,-4.47
2022-11-18T20:44:00.104Z,-4.55
2022-11-18T20:46:27.789Z,-4.59
2022-11-18T20:48:55.510Z,-4.63
2022-11-18T20:51:24.829Z,-4.63
2022-11-18T20:53:52.310Z,-4.65
2022-11-18T20:56:21.628Z,-4.74
2022-11-18T20:58:48.806Z,-4.71
2022-11-18T21:01:21.791Z,-4.75
2022-11-18T21:03:53.598Z,-4.73
2022-11-18T21:06:22.292Z,-4.75
2022-11-18T21:08:54.079Z,-4.77
2022-11-18T21:11:21.388Z,-4.81
2022-11-18T21:14:07.303Z,-4.76
2022-11-18T21:16:34.827Z,-4.81
2022-11-18T21:19:02.040Z,-4.75
2022-11-18T21:21:44.566Z,-4.75
2022-11-18T21:24:13.873Z,-4.75
2022-11-18T21:26:41.077Z,-4.69
2022-11-18T21:29:10.750Z,-4.74
2022-11-18T21:31:38.443Z,-4.75
2022-11-18T21:34:06.441Z,-4.76
2022-11-18T21:36:34.160Z,-4.75
2022-11-18T21:39:01.974Z,-4.72
2022-11-18T21:41:30.007Z,-4.76
2022-11-18T21:44:05.485Z,-4.86
2022-11-18T21:46:38.129Z,-4.90
2022-11-18T21:49:06.067Z,-4.93
2022-11-18T21:51:34.162Z,-4.89
2022-11-18T21:54:02.057Z,-4.96
2022-11-18T21:56:31.311Z,-4.95
2022-11-18T21:59:00.160Z,-4.95
2022-11-18T22:01:29.681Z,-4.89
2022-11-18T22:03:58.958Z,-4.98
2022-11-18T22:06:26.486Z,-5.02
2022-11-18T22:08:53.905Z,-4.98
2022-11-18T22:11:22.496Z,-5.01
2022-11-18T22:13:51.854Z,-4.94
2022-11-18T22:16:19.785Z,-4.95
2022-11-18T22:18:53.090Z,-5.01
2022-11-18T22:21:23.582Z,-5.03
2022-11-18T22:23:50.718Z,-4.98
2022-11-18T22:26:19.887Z,-5.01
2022-11-18T22:28:47.951Z,-5.13
2022-11-18T22:31:20.199Z,-5.08
2022-11-18T22:33:47.915Z,-5.07
2022-11-18T22:36:16.307Z,-5.08
2022-11-18T22:38:44.218Z,-5.17
2022-11-18T22:41:37.573Z,-5.11
2022-11-18T22:44:07.892Z,-5.14
2022-11-18T22:46:39.896Z,-5.11
2022-11-18T22:49:07.802Z,-5.08
2022-11-18T22:51:36.175Z,-5.11
2022-11-18T22:54:36.347Z,-5.10
2022-11-18T22:56:50.896Z,-5.21
2022-11-18T22:59:18.437Z,-5.26
2022-11-18T23:01:45.948Z,-5.26
2022-11-18T23:04:13.105Z,-5.31
2022-11-18T23:06:40.279Z,-5.36
2022-11-18T23:09:07.471Z,-5.39
2022-11-18T23:11:53.012Z,-5.30
2022-11-18T23:14:20.183Z,-5.35
2022-11-18T23:16:47.341Z,-5.35
2022-11-18T23:19:17.119Z,-5.40
2022-11-18T23:21:44.980Z,-5.39
2022-11-18T23:24:13.253Z,-5.41
2022-11-18T23:26:41.186Z,-5.38
2022-11-18T23:29:09.406Z,-5.48
2022-11-18T23:31:36.680Z,-5.50
2022-11-18T23:34:03.860Z,-5.48
2022-11-18T23:36:31.225Z,-5.51
2022-11-18T23:38:58.755Z,-5.53
2022-11-18T23:41:25.935Z,-5.63
2022-11-18T23:43:54.160Z,-5.54
2022-11-18T23:46:21.458Z,-5.51
2022-11-18T23:48:48.745Z,-5.52
2022-11-18T23:51:22.966Z,-5.52
2022-11-18T23:53:54.129Z,-5.60
2022-11-18T23:56:23.283Z,-5.62
2022-11-18T23:58:51.780Z,-5.60
